Time;durP1;ratioP1;P1;durP2;ratioP2;P2;SDS_P1;SDS_P2;PMS_P1;PMS_P2;Temp;Humidity;BMP_temperature;BMP_pressure;BME280_temperature;BME280_humidity;BME280_pressure;Samples;Min_cycle;Max_cycle;Signal;HPM_P1;HPM_P2
2022/06/18 00:01:37;;;;;;;5.18;3.00;;;;;;;29.49;28.27;101467.09;5032271;28;20080;-71
2022/06/18 00:04:05;;;;;;;4.78;2.78;;;;;;;29.44;27.81;101469.69;5046824;28;20064;-72
2022/06/18 00:06:37;;;;;;;4.32;3.03;;;;;;;29.45;28.21;101462.16;5034401;28;20059;-72
2022/06/18 00:09:04;;;;;;;5.70;3.15;;;;;;;29.38;28.17;101459.34;5030711;28;20073;-71
2022/06/18 00:14:16;;;;;;;4.38;2.90;;;;;;;29.33;28.22;101459.06;5047664;28;20077;-72
2022/06/18 00:16:43;;;;;;;5.60;3.30;;;;;;;29.31;28.42;101451.97;5026195;28;20119;-72
2022/06/18 00:19:09;;;;;;;3.88;2.92;;;;;;;29.28;28.35;101450.44;5033409;28;20053;-72
2022/06/18 00:21:36;;;;;;;4.85;3.13;;;;;;;29.26;28.70;101452.59;5055109;28;20044;-72
2022/06/18 00:24:12;;;;;;;6.25;3.25;;;;;;;29.26;28.52;101443.31;5046828;28;20072;-72
2022/06/18 00:26:38;;;;;;;4.47;2.88;;;;;;;29.19;28.29;101442.44;5046373;28;20099;-72
2022/06/18 00:29:13;;;;;;;3.83;2.85;;;;;;;29.19;28.68;101446.13;5049717;28;20135;-73
2022/06/18 00:31:39;;;;;;;5.85;3.13;;;;;;;29.12;28.49;101440.50;5053286;28;20140;-72
2022/06/18 00:34:06;;;;;;;4.63;3.13;;;;;;;29.10;28.64;101450.16;5057983;28;20174;-73
2022/06/18 00:36:37;;;;;;;5.13;2.85;;;;;;;29.09;28.85;101440.91;5050420;28;20087;-72
2022/06/18 00:39:04;;;;;;;5.07;2.95;;;;;;;29.03;28.87;101438.09;5030158;28;20457;-73
2022/06/18 00:41:33;;;;;;;4.22;2.63;;;;;;;29.02;28.89;101445.63;5026507;28;20808;-72
2022/06/18 00:44:10;;;;;;;4.32;2.90;;;;;;;28.99;29.01;101439.59;5032601;28;20512;-73
2022/06/18 00:46:46;;;;;;;5.28;3.05;;;;;;;28.95;29.28;101441.94;5037863;28;20088;-72
2022/06/18 00:49:19;;;;;;;5.50;3.17;;;;;;;28.89;28.74;101431.59;5043890;28;20053;-72
2022/06/18 00:51:58;;;;;;;4.88;3.08;;;;;;;28.89;29.03;101431.59;5049469;28;20077;-73
2022/06/18 00:54:33;;;;;;;5.20;2.95;;;;;;;28.85;29.25;101435.88;5050627;28;20141;-72
2022/06/18 00:57:04;;;;;;;4.00;2.78;;;;;;;28.84;29.44;101442.53;5058464;28;20155;-73
2022/06/18 00:59:51;;;;;;;4.15;2.83;;;;;;;28.80;29.28;101437.56;5035298;28;20501;-72
2022/06/18 01:02:22;;;;;;;4.20;2.75;;;;;;;28.78;29.35;101437.78;5029060;28;20465;-72
2022/06/18 01:04:49;;;;;;;5.18;2.63;;;;;;;28.74;28.97;101431.69;5033283;28;20044;-73
2022/06/18 01:07:31;;;;;;;4.28;2.88;;;;;;;28.76;29.25;101434.31;5026333;28;20056;-72
2022/06/18 01:10:01;;;;;;;4.43;2.90;;;;;;;28.74;29.13;101439.25;5046139;28;20128;-73
2022/06/18 01:12:28;;;;;;;3.97;2.75;;;;;;;28.69;29.39;101428.66;5030030;28;20120;-73
2022/06/18 01:15:01;;;;;;;4.43;2.92;;;;;;;28.73;29.40;101434.72;5049547;28;20087;-73
2022/06/18 01:17:30;;;;;;;4.40;3.00;;;;;;;28.70;29.37;101424.81;5060650;28;20132;-72
2022/06/18 01:20:00;;;;;;;4.80;2.75;;;;;;;28.67;29.54;101428.00;5051018;28;20464;-72
2022/06/18 01:22:47;;;;;;;3.85;2.78;;;;;;;28.68;29.44;101421.34;5057045;28;20374;-72
2022/06/18 01:25:14;;;;;;;4.47;3.20;;;;;;;28.61;29.25;101431.63;5052668;28;20544;-73
2022/06/18 01:27:40;;;;;;;3.97;3.10;;;;;;;28.61;29.11;101431.63;5051205;28;20502;-73
2022/06/18 01:30:14;;;;;;;4.50;2.80;;;;;;;28.62;29.57;101424.13;5031429;28;20084;-73
2022/06/18 01:32:46;;;;;;;4.47;2.70;;;;;;;28.59;29.42;101422.59;5054204;28;20087;-72
2022/06/18 01:35:13;;;;;;;4.88;2.92;;;;;;;28.53;29.76;101416.97;5041600;28;20123;-72
2022/06/18 01:37:40;;;;;;;4.65;3.00;;;;;;;28.52;29.60;101412.44;5035564;28;20079;-72
2022/06/18 01:40:12;;;;;;;5.45;2.75;;;;;;;28.54;29.80;101411.19;5052406;28;20500;-72
2022/06/18 01:42:45;;;;;;;4.43;3.05;;;;;;;28.51;29.73;101407.94;5046720;28;20403;-73
2022/06/18 01:45:21;;;;;;;5.05;2.60;;;;;;;28.52;29.67;101401.28;5051704;28;20387;-73
2022/06/18 01:47:48;;;;;;;3.88;3.08;;;;;;;28.46;29.75;101399.31;5031418;28;20044;-73
2022/06/18 01:50:30;;;;;;;4.00;2.60;;;;;;;28.49;29.99;101408.16;5039317;28;20136;-73
2022/06/18 01:53:04;;;;;;;3.80;2.65;;;;;;;28.47;29.83;101406.63;5051496;28;20135;-73
2022/06/18 01:55:44;;;;;;;4.90;2.70;;;;;;;28.47;29.79;101398.25;5029850;28;20109;-72
2022/06/18 01:58:16;;;;;;;4.55;2.88;;;;;;;28.45;29.69;101404.03;5047786;28;20131;-72
2022/06/18 02:00:47;;;;;;;3.80;2.60;;;;;;;28.42;29.45;101401.63;5055041;28;20549;-71
2022/06/18 02:03:14;;;;;;;4.33;2.87;;;;;;;28.38;29.48;101406.78;5054587;28;20048;-71
2022/06/18 02:05:41;;;;;;;4.63;2.85;;;;;;;28.39;29.54;101402.94;5047990;28;20299;-72
2022/06/18 02:08:11;;;;;;;4.10;2.58;;;;;;;28.40;29.75;101401.00;5053794;28;20049;-73
2022/06/18 02:10:43;;;;;;;4.28;2.92;;;;;;;28.38;29.92;101401.22;5047586;28;20480;-73
2022/06/18 02:13:12;;;;;;;4.32;2.67;;;;;;;28.35;29.78;101396.03;5051015;28;20140;-72
2022/06/18 02:15:42;;;;;;;3.65;2.50;;;;;;;28.34;29.94;101385.06;5049902;28;20132;-73
2022/06/18 02:18:12;;;;;;;3.40;2.50;;;;;;;28.32;29.72;101387.22;5047017;28;20048;-72
2022/06/18 02:20:53;;;;;;;4.07;2.75;;;;;;;28.32;29.82;101388.06;5048747;28;20076;-73
2022/06/18 02:23:22;;;;;;;3.67;2.57;;;;;;;28.25;29.50;101392.72;5048486;28;20059;-72
2022/06/18 02:25:49;;;;;;;3.20;2.42;;;;;;;28.21;29.46;101383.06;5048501;28;20077;-72
2022/06/18 02:28:23;;;;;;;4.30;2.83;;;;;;;28.19;29.35;101379.59;5053989;28;20520;-72
2022/06/18 02:30:55;;;;;;;4.82;2.70;;;;;;;28.18;29.93;101390.97;5057907;28;20435;-73
2022/06/18 02:33:39;;;;;;;4.23;2.60;;;;;;;28.16;29.79;101381.97;5034711;28;20053;-72
2022/06/18 02:36:19;;;;;;;4.55;2.50;;;;;;;28.14;29.78;101387.72;5047981;28;20539;-73
2022/06/18 02:38:47;;;;;;;4.75;2.70;;;;;;;28.09;29.34;101387.44;5028237;28;20041;-72
2022/06/18 02:41:14;;;;;;;6.82;2.67;;;;;;;28.06;29.78;101378.63;5048788;28;20160;-72
2022/06/18 02:43:43;;;;;;;5.10;2.50;;;;;;;28.07;29.86;101380.34;5049053;28;20155;-72
2022/06/18 02:46:11;;;;;;;4.75;2.47;;;;;;;28.05;30.20;101391.72;5028057;28;20580;-72
2022/06/18 02:48:39;;;;;;;4.78;2.80;;;;;;;28.03;30.04;101383.53;5048177;28;20056;-73
2022/06/18 02:51:07;;;;;;;4.00;2.78;;;;;;;28.01;29.77;101390.38;5047965;28;20132;-72
2022/06/18 02:53:33;;;;;;;3.85;2.80;;;;;;;27.98;30.16;101377.72;5066139;28;20048;-72
2022/06/18 02:56:03;;;;;;;3.72;2.03;;;;;;;28.00;30.06;101386.72;5060123;28;20048;-71
2022/06/18 02:58:37;;;;;;;3.80;2.50;;;;;;;28.00;30.14;101383.94;5045674;28;20412;-72
2022/06/18 03:01:07;;;;;;;4.35;2.45;;;;;;;27.98;30.37;101383.31;5048814;28;20452;-72
2022/06/18 03:03:39;;;;;;;5.60;2.30;;;;;;;27.99;30.26;101389.75;5056501;28;20474;-72
2022/06/18 03:06:07;;;;;;;4.15;2.50;;;;;;;27.95;30.19;101391.22;5036734;28;20045;-73
2022/06/18 03:08:36;;;;;;;3.78;2.95;;;;;;;27.96;29.92;101393.81;5052290;28;20135;-73
2022/06/18 03:13:50;;;;;;;4.13;2.60;;;;;;;27.95;30.32;101397.66;5059489;28;20057;-72
2022/06/18 03:16:19;;;;;;;4.43;2.78;;;;;;;27.97;30.15;101403.03;5053725;28;20092;-72
2022/06/18 03:18:46;;;;;;;6.00;2.80;;;;;;;27.96;29.87;101398.53;5053101;28;20052;-72
2022/06/18 03:21:31;;;;;;;5.30;2.90;;;;;;;27.99;29.99;101399.00;5036508;28;20060;-72
2022/06/18 03:23:57;;;;;;;3.78;2.47;;;;;;;27.94;30.12;101403.44;5052656;28;20045;-72
2022/06/18 03:26:24;;;;;;;3.83;2.25;;;;;;;27.95;29.83;101399.59;5041444;28;20181;-72
2022/06/18 03:28:51;;;;;;;3.75;2.33;;;;;;;27.93;30.22;101398.91;5058476;28;20137;-72
2022/06/18 03:31:17;;;;;;;3.55;2.38;;;;;;;27.93;30.01;101408.16;5055656;28;20079;-72
2022/06/18 03:33:46;;;;;;;4.18;2.80;;;;;;;27.91;30.15;101406.66;5047748;28;20151;-72
2022/06/18 03:36:14;;;;;;;4.05;2.30;;;;;;;27.90;30.11;101408.56;5033176;28;20052;-72
2022/06/18 03:38:41;;;;;;;4.68;2.60;;;;;;;27.87;29.86;101402.53;5047745;28;20057;-73
2022/06/18 03:41:09;;;;;;;4.38;2.53;;;;;;;27.86;30.15;101404.44;5032900;28;20060;-73
2022/06/18 03:43:36;;;;;;;4.85;2.40;;;;;;;27.82;30.20;101403.16;5047301;28;20431;-72
2022/06/18 03:46:12;;;;;;;4.68;2.70;;;;;;;27.83;30.20;101398.44;5038996;28;20053;-72
2022/06/18 03:48:57;;;;;;;3.33;2.35;;;;;;;27.75;30.34;101405.03;5057575;28;20143;-72
2022/06/18 03:51:25;;;;;;;5.22;2.58;;;;;;;27.73;30.28;101409.94;5031407;28;20049;-72
2022/06/18 03:53:52;;;;;;;4.47;2.60;;;;;;;27.70;30.56;101410.31;5049391;28;20075;-73
2022/06/18 03:56:21;;;;;;;4.25;2.63;;;;;;;27.71;30.23;101402.81;5054053;28;20087;-72
2022/06/18 03:58:48;;;;;;;4.22;2.65;;;;;;;27.68;30.26;101409.66;5050996;28;20075;-72
2022/06/18 04:01:21;;;;;;;3.67;2.58;;;;;;;27.71;30.58;101409.25;5034962;28;20132;-72
2022/06/18 04:03:48;;;;;;;4.05;2.60;;;;;;;27.66;30.53;101406.22;5052373;28;20033;-72
2022/06/18 04:06:15;;;;;;;4.07;2.53;;;;;;;27.67;30.42;101407.09;5061723;28;20053;-72
2022/06/18 04:08:43;;;;;;;4.18;2.63;;;;;;;27.66;30.83;101406.22;5051387;28;20473;-72
2022/06/18 04:11:11;;;;;;;4.35;2.58;;;;;;;27.64;30.46;101403.63;5057177;28;20051;-72
2022/06/18 04:13:37;;;;;;;4.40;2.50;;;;;;;27.63;30.49;101403.81;5049698;28;20057;-72
2022/06/18 04:16:06;;;;;;;3.75;2.67;;;;;;;27.63;30.56;101401.03;5048860;28;20549;-73
2022/06/18 04:18:33;;;;;;;5.53;2.60;;;;;;;27.62;30.53;101396.50;5056428;28;20052;-72
2022/06/18 04:21:00;;;;;;;3.95;2.40;;;;;;;27.61;30.66;101395.66;5051586;28;20362;-72
2022/06/18 04:23:27;;;;;;;4.03;2.60;;;;;;;27.60;30.38;101402.28;5032658;28;20490;-72
2022/06/18 04:25:53;;;;;;;3.70;2.22;;;;;;;27.59;30.58;101400.56;5053339;28;20128;-73
2022/06/18 04:28:20;;;;;;;4.05;2.67;;;;;;;27.61;30.53;101394.78;5048594;28;20049;-72
2022/06/18 04:30:46;;;;;;;4.68;2.78;;;;;;;27.60;30.92;101399.50;5035218;28;20136;-73
2022/06/18 04:33:13;;;;;;;3.92;2.63;;;;;;;27.61;30.84;101411.53;5049432;28;20136;-72
2022/06/18 04:35:51;;;;;;;5.68;2.55;;;;;;;27.64;31.02;101406.41;5034937;28;20107;-72
2022/06/18 04:38:18;;;;;;;3.05;2.13;;;;;;;27.59;31.00;101400.56;5030673;28;20059;-72
2022/06/18 04:40:45;;;;;;;3.90;2.50;;;;;;;27.62;30.96;101397.38;5049728;28;20549;-73
2022/06/18 04:43:27;;;;;;;5.82;2.83;;;;;;;27.61;30.87;101401.22;5040273;28;20104;-72
2022/06/18 04:45:56;;;;;;;4.72;2.40;;;;;;;27.69;30.77;101400.22;5061994;28;20048;-73
2022/06/18 04:48:23;;;;;;;4.30;2.35;;;;;;;27.68;30.72;101392.91;5042342;28;20057;-73
2022/06/18 04:50:50;;;;;;;4.47;2.30;;;;;;;27.70;30.89;101385.22;5062850;28;20143;-73
2022/06/18 04:53:17;;;;;;;4.05;2.58;;;;;;;27.72;30.64;101383.09;5032497;28;20045;-72
2022/06/18 04:55:44;;;;;;;4.03;2.45;;;;;;;27.74;31.05;101386.53;5059744;28;20049;-73
2022/06/18 04:58:11;;;;;;;4.18;2.30;;;;;;;27.77;30.64;101382.47;5049230;28;20554;-73
2022/06/18 05:00:38;;;;;;;3.60;2.33;;;;;;;27.80;30.56;101385.72;5045693;28;20135;-73
2022/06/18 05:03:05;;;;;;;3.20;2.10;;;;;;;27.82;30.60;101383.59;5030669;28;20140;-73
2022/06/18 05:05:32;;;;;;;3.72;2.33;;;;;;;27.84;31.06;101384.25;5036795;28;20525;-72
2022/06/18 05:07:58;;;;;;;3.30;2.38;;;;;;;27.86;31.23;101378.47;5047994;28;20386;-72
2022/06/18 05:10:25;;;;;;;3.30;2.42;;;;;;;27.91;31.08;101378.75;5039941;28;20087;-72
2022/06/18 05:12:51;;;;;;;3.78;2.33;;;;;;;27.95;30.78;101380.91;5053227;28;20450;-73
2022/06/18 05:15:18;;;;;;;4.63;2.50;;;;;;;28.01;30.91;101388.47;5053315;28;20140;-73
2022/06/18 05:17:46;;;;;;;3.80;2.40;;;;;;;28.08;30.89;101384.88;5048371;28;20056;-73
2022/06/18 05:20:16;;;;;;;5.07;2.28;;;;;;;28.16;31.14;101388.41;5031652;28;20053;-73
2022/06/18 05:22:43;;;;;;;3.55;2.20;;;;;;;28.20;30.67;101386.03;5048200;28;20095;-72
2022/06/18 05:25:11;;;;;;;3.80;2.28;;;;;;;28.28;30.68;101383.97;5032101;28;20095;-72
2022/06/18 05:27:38;;;;;;;4.38;2.38;;;;;;;28.36;30.44;101382.91;5020260;28;20084;-72
2022/06/18 05:30:09;;;;;;;3.30;2.33;;;;;;;28.47;30.65;101375.91;5046919;28;20041;-72
2022/06/18 05:32:35;;;;;;;4.00;2.30;;;;;;;28.52;30.83;101379.78;5050185;28;20148;-73
2022/06/18 05:35:02;;;;;;;4.10;2.40;;;;;;;28.63;30.54;101375.53;5050586;28;20040;-73
2022/06/18 05:37:31;;;;;;;3.33;2.17;;;;;;;28.73;30.34;101381.63;5047605;28;20429;-72
2022/06/18 05:39:57;;;;;;;3.83;2.45;;;;;;;28.81;30.17;101377.81;5031299;28;20048;-73
2022/06/18 05:42:24;;;;;;;4.05;2.13;;;;;;;28.90;30.56;101374.63;5029809;28;20045;-73
2022/06/18 05:44:51;;;;;;;3.78;2.20;;;;;;;29.00;30.13;101375.06;5052754;28;20554;-73
2022/06/18 05:47:20;;;;;;;4.53;2.35;;;;;;;29.12;30.25;101380.91;5053987;28;20137;-73
2022/06/18 05:49:48;;;;;;;3.78;2.20;;;;;;;29.20;30.26;101366.72;5060875;28;20052;-73
2022/06/18 05:52:14;;;;;;;4.53;2.17;;;;;;;29.31;30.10;101373.66;5048005;28;20055;-73
2022/06/18 05:54:41;;;;;;;5.50;2.30;;;;;;;29.41;30.02;101377.75;5051852;28;20053;-73
2022/06/18 05:57:08;;;;;;;4.43;2.40;;;;;;;29.54;30.04;101373.25;5060539;28;20489;-73
2022/06/18 05:59:35;;;;;;;3.65;2.42;;;;;;;29.63;29.94;101372.84;5030148;28;20132;-73
2022/06/18 06:02:02;;;;;;;4.13;2.30;;;;;;;29.75;29.80;101365.50;5054062;28;20549;-73
2022/06/18 06:04:29;;;;;;;4.18;2.20;;;;;;;29.87;29.79;101369.38;5044556;28;20060;-73
2022/06/18 06:06:56;;;;;;;3.72;2.00;;;;;;;30.00;29.49;101371.34;5034120;28;20516;-73
2022/06/18 06:12:26;;;;;;;4.20;2.35;;;;;;;30.23;29.45;101377.31;4988231;28;20077;-73
2022/06/18 06:14:53;;;;;;;4.13;2.47;;;;;;;30.36;29.37;101373.63;5035990;28;20135;-73
2022/06/18 06:17:21;;;;;;;5.15;2.50;;;;;;;30.50;29.08;101372.50;5055062;28;20449;-73
2022/06/18 06:19:49;;;;;;;4.43;2.50;;;;;;;30.59;29.29;101374.03;5032834;28;20083;-74
2022/06/18 06:22:15;;;;;;;4.22;2.50;;;;;;;30.72;29.04;101372.25;5038458;28;20090;-73
2022/06/18 06:24:42;;;;;;;4.80;2.22;;;;;;;30.83;28.98;101378.00;5056231;28;20079;-73
2022/06/18 06:27:09;;;;;;;4.15;2.13;;;;;;;30.96;28.61;101382.72;5041023;28;20045;-73
2022/06/18 06:29:36;;;;;;;4.32;2.38;;;;;;;31.06;28.38;101379.41;5049819;28;20048;-73
2022/06/18 06:32:03;;;;;;;3.97;2.17;;;;;;;31.20;28.29;101381.09;5029545;28;20095;-73
2022/06/18 06:34:30;;;;;;;4.45;2.42;;;;;;;31.29;28.17;101382.53;5026390;28;20132;-73
2022/06/18 06:36:56;;;;;;;4.93;2.55;;;;;;;31.41;28.59;101377.06;5034149;28;20548;-73
2022/06/18 06:39:23;;;;;;;3.50;2.20;;;;;;;31.51;28.13;101383.88;5046812;28;20052;-74
2022/06/18 06:41:50;;;;;;;4.43;2.28;;;;;;;31.61;27.85;101378.66;5048363;28;20132;-73
2022/06/18 06:44:16;;;;;;;3.25;2.35;;;;;;;31.70;27.62;101382.91;5051205;28;20490;-72
2022/06/18 06:46:43;;;;;;;4.38;2.20;;;;;;;31.80;27.57;101379.56;5039240;28;20257;-65
2022/06/18 06:49:09;;;;;;;3.50;2.30;;;;;;;31.90;27.50;101371.50;5050685;28;20072;-65
2022/06/18 06:51:37;;;;;;;4.55;2.47;;;;;;;32.00;27.38;101371.84;5046747;28;20077;-62
2022/06/18 06:54:07;;;;;;;3.45;2.13;;;;;;;32.09;27.33;101378.00;5046454;28;20405;-72
2022/06/18 06:59:19;;;;;;;4.20;2.33;;;;;;;32.25;27.37;101362.53;5041969;28;20137;-72
2022/06/18 07:01:46;;;;;;;4.45;2.38;;;;;;;32.33;27.49;101365.91;5052966;28;20175;-73
2022/06/18 07:04:13;;;;;;;3.47;2.20;;;;;;;32.42;27.32;101370.13;5043597;28;20036;-69
2022/06/18 07:06:41;;;;;;;3.97;2.08;;;;;;;32.52;27.38;101363.09;5029889;28;20053;-70
2022/06/18 07:09:08;;;;;;;4.28;2.10;;;;;;;32.60;27.06;101369.25;5044502;28;20048;-72
2022/06/18 07:11:36;;;;;;;3.38;2.30;;;;;;;32.69;27.09;101361.41;5046781;28;20052;-70
2022/06/18 07:14:03;;;;;;;3.50;2.50;;;;;;;32.78;26.83;101369.25;5046579;28;20124;-70
2022/06/18 07:16:30;;;;;;;5.40;2.35;;;;;;;32.86;26.96;101371.75;5049382;28;20077;-72
2022/06/18 07:18:58;;;;;;;4.95;2.50;;;;;;;32.95;26.74;101365.78;5047551;28;20051;-72
2022/06/18 07:21:25;;;;;;;4.22;2.53;;;;;;;33.04;27.10;101364.34;5053553;28;20091;-72
2022/06/18 07:23:51;;;;;;;4.18;2.00;;;;;;;33.14;26.49;101365.50;5033435;28;20512;-72
2022/06/18 07:26:21;;;;;;;4.70;2.60;;;;;;;33.28;26.33;101366.19;5046296;28;20076;-73
2022/06/18 07:28:48;;;;;;;4.65;2.38;;;;;;;33.35;26.49;101368.94;5057786;28;20048;-71
2022/06/18 07:31:25;;;;;;;3.78;2.20;;;;;;;33.49;26.11;101365.66;5050901;28;20055;-71
2022/06/18 07:33:57;;;;;;;3.67;2.20;;;;;;;33.58;26.42;101363.34;5035228;28;20041;-73
2022/06/18 07:36:24;;;;;;;4.82;2.20;;;;;;;33.67;25.97;101356.28;5057059;28;20148;-73
2022/06/18 07:38:50;;;;;;;4.80;2.60;;;;;;;33.79;26.00;101361.94;5045123;28;20128;-72
2022/06/18 07:41:19;;;;;;;3.53;2.25;;;;;;;33.91;26.02;101368.44;5045945;28;20585;-72
2022/06/18 07:43:49;;;;;;;4.03;2.15;;;;;;;34.01;25.86;101360.25;5025980;28;20041;-71
2022/06/18 07:46:16;;;;;;;3.50;2.28;;;;;;;34.10;25.97;101366.38;5045686;28;20057;-71
2022/06/18 07:48:43;;;;;;;3.80;2.10;;;;;;;34.19;25.51;101367.69;5057785;28;20048;-71
2022/06/18 07:51:11;;;;;;;3.83;2.15;;;;;;;34.29;25.65;101362.34;5059706;28;20541;-71
2022/06/18 07:53:39;;;;;;;4.60;2.30;;;;;;;34.39;24.99;101361.72;5035572;28;20103;-71
2022/06/18 07:56:07;;;;;;;3.60;2.33;;;;;;;34.48;24.96;101363.91;5050068;28;20053;-71
2022/06/18 07:58:34;;;;;;;4.35;2.40;;;;;;;34.57;24.50;101355.91;5052436;28;20441;-71
2022/06/18 08:01:01;;;;;;;3.40;2.20;;;;;;;34.64;24.77;101357.50;5047974;28;20081;-70
2022/06/18 08:03:28;;;;;;;3.67;2.30;;;;;;;34.74;24.64;101348.41;5051975;28;20238;-72
2022/06/18 08:05:55;;;;;;;4.07;2.45;;;;;;;34.83;24.23;101346.91;5051426;28;20057;-72
2022/06/18 08:08:22;;;;;;;4.47;2.30;;;;;;;34.90;24.48;101336.34;5049340;28;20570;-71
2022/06/18 08:11:11;;;;;;;4.57;2.30;;;;;;;35.03;23.83;101332.34;5039390;28;20175;-71
2022/06/18 08:13:38;;;;;;;3.20;2.08;;;;;;;35.07;24.12;101325.09;5062343;28;20132;-71
2022/06/18 08:16:05;;;;;;;4.47;2.38;;;;;;;35.17;23.71;101332.91;5046028;28;20080;-71
2022/06/18 08:18:32;;;;;;;4.45;2.40;;;;;;;35.22;23.63;101327.34;5049423;28;20132;-72
2022/06/18 08:21:17;;;;;;;4.95;2.53;;;;;;;35.31;23.91;101318.25;5060626;28;20509;-71
2022/06/18 08:23:44;;;;;;;4.53;2.20;;;;;;;35.35;24.02;101321.38;5051260;28;20136;-72
2022/06/18 08:26:11;;;;;;;4.45;2.47;;;;;;;35.43;23.97;101316.19;5053523;28;20110;-71
2022/06/18 08:28:39;;;;;;;3.25;2.08;;;;;;;35.52;23.83;101307.28;5061595;28;20045;-70
2022/06/18 08:31:07;;;;;;;6.25;2.40;;;;;;;35.59;23.23;101307.97;5044003;28;20053;-72
2022/06/18 08:33:34;;;;;;;5.30;2.70;;;;;;;35.65;23.60;101318.25;5052080;28;20128;-72
2022/06/18 08:36:05;;;;;;;4.07;2.63;;;;;;;35.73;23.38;101309.38;5050182;28;20128;-73
2022/06/18 08:38:33;;;;;;;4.93;2.50;;;;;;;35.79;22.92;101309.19;5030731;28;20132;-72
2022/06/18 08:41:26;;;;;;;4.20;2.50;;;;;;;35.89;22.71;101304.81;5050043;28;20492;-72
2022/06/18 08:44:11;;;;;;;4.65;2.30;;;;;;;35.90;23.41;101300.88;5031400;28;20091;-71
2022/06/18 08:46:59;;;;;;;3.38;2.10;;;;;;;36.02;23.12;101301.63;5045879;28;20056;-73
2022/06/18 08:50:08;;;;;;;4.30;2.28;;;;;;;35.99;23.34;101297.31;5046627;28;20053;-72
2022/06/18 08:52:44;;;;;;;4.28;2.33;;;;;;;36.14;22.44;101302.38;4959656;28;20046;-72
2022/06/18 08:55:37;;;;;;;5.85;2.65;;;;;;;36.16;23.18;101295.31;5052375;28;20129;-72
2022/06/18 08:58:33;;;;;;;4.40;2.30;;;;;;;36.26;22.58;101302.28;5034229;28;20563;-72
2022/06/18 09:01:11;;;;;;;5.15;2.55;;;;;;;36.35;22.70;101289.38;5049386;28;20490;-72
2022/06/18 09:03:44;;;;;;;4.68;2.50;;;;;;;36.38;23.01;101292.56;5044557;23;20315;-70
2022/06/18 09:06:38;;;;;;;4.35;2.30;;;;;;;36.47;23.09;101288.16;5029455;28;20065;-70
2022/06/18 09:09:36;;;;;;;4.50;2.17;;;;;;;36.56;22.46;101297.03;5029059;28;20053;-73
2022/06/18 09:12:38;;;;;;;4.90;2.70;;;;;;;36.60;22.30;101286.88;5029480;28;20046;-70
2022/06/18 09:15:29;;;;;;;5.68;2.70;;;;;;;36.68;21.85;101285.59;5010055;28;20123;-70
2022/06/18 09:18:14;;;;;;;5.32;2.40;;;;;;;36.77;21.98;101281.16;5009149;28;20060;-70
2022/06/18 09:20:48;;;;;;;6.60;2.60;;;;;;;36.85;21.46;101292.88;5009349;28;20058;-71
2022/06/18 09:23:24;;;;;;;4.65;2.47;;;;;;;36.93;21.88;101280.22;5008786;28;20133;-71
2022/06/18 09:25:53;;;;;;;4.20;2.53;;;;;;;36.97;21.66;101279.44;5010002;28;20133;-73
2022/06/18 09:28:30;;;;;;;4.93;2.15;;;;;;;37.08;21.45;101280.38;5008868;28;20050;-72
2022/06/18 09:31:12;;;;;;;3.58;2.03;;;;;;;37.14;21.06;101272.81;5008107;28;20042;-72
2022/06/18 09:33:55;;;;;;;5.85;1.98;;;;;;;37.20;21.19;101274.56;5009350;28;20050;-73
2022/06/18 09:36:31;;;;;;;7.38;2.40;;;;;;;37.29;21.25;101282.31;5009610;28;20463;-72
2022/06/18 09:39:07;;;;;;;5.10;1.92;;;;;;;37.38;20.55;101279.84;5008979;28;20050;-73
2022/06/18 09:41:40;;;;;;;7.20;2.45;;;;;;;37.45;20.58;101273.94;4992233;28;20085;-73
2022/06/18 09:44:18;;;;;;;5.55;2.72;;;;;;;37.51;20.39;101272.84;5008260;28;20085;-73
2022/06/18 09:47:02;;;;;;;4.78;2.30;;;;;;;37.54;20.67;101273.19;5009966;28;20054;-73
2022/06/18 09:49:29;;;;;;;5.70;2.40;;;;;;;37.60;20.47;101272.13;5006615;28;20582;-72
2022/06/18 09:52:07;;;;;;;5.20;2.38;;;;;;;37.72;20.21;101273.91;5009619;28;20448;-73
2022/06/18 09:54:39;;;;;;;6.85;2.47;;;;;;;37.76;20.57;101270.25;5007891;28;20137;-73
2022/06/18 09:57:08;;;;;;;5.57;2.28;;;;;;;37.79;20.51;101261.19;4991501;28;20411;-73
2022/06/18 09:59:41;;;;;;;5.95;2.38;;;;;;;37.89;20.42;101268.88;5008358;28;20487;-73
2022/06/18 10:02:22;;;;;;;5.40;2.33;;;;;;;37.95;19.38;101259.31;4992050;28;20142;-73
2022/06/18 10:07:41;;;;;;;6.43;2.05;;;;;;;38.03;19.44;101255.97;5009943;28;20467;-73
2022/06/18 10:10:14;;;;;;;5.45;2.55;;;;;;;38.11;19.61;101258.31;5010757;28;20133;-73
2022/06/18 10:12:48;;;;;;;5.95;2.30;;;;;;;38.18;18.79;101260.88;5027197;28;20046;-73
2022/06/18 10:15:18;;;;;;;4.13;2.20;;;;;;;38.21;19.11;101264.03;5028631;28;20053;-72
2022/06/18 10:18:06;;;;;;;6.25;2.60;;;;;;;38.25;18.79;101259.50;5027168;28;20520;-73
2022/06/18 10:20:52;;;;;;;5.97;2.33;;;;;;;38.32;19.19;101257.25;5028976;28;20060;-73
2022/06/18 10:23:39;;;;;;;4.70;2.22;;;;;;;38.37;19.08;101257.28;5027684;28;20703;-73
2022/06/18 10:26:24;;;;;;;5.85;2.75;;;;;;;38.42;18.60;101248.78;5011033;28;20534;-73
2022/06/18 10:28:54;;;;;;;6.35;2.15;;;;;;;38.47;19.35;101245.09;5028133;28;20073;-73
2022/06/18 10:31:44;;;;;;;5.53;2.35;;;;;;;38.52;18.73;101247.16;5028520;28;20144;-73
2022/06/18 10:34:41;;;;;;;4.63;2.20;;;;;;;38.56;18.80;101243.47;5027952;28;20842;-73
2022/06/18 10:37:26;;;;;;;6.13;2.20;;;;;;;38.57;19.21;101236.66;5028271;28;20521;-72
2022/06/18 10:40:32;;;;;;;5.60;2.38;;;;;;;38.68;19.06;101246.94;5028114;28;20439;-73
2022/06/18 10:43:14;;;;;;;5.70;2.78;;;;;;;38.73;19.07;101237.56;5009827;28;20335;-73
2022/06/18 10:45:59;;;;;;;4.50;2.15;;;;;;;38.78;18.41;101231.91;5028382;28;20137;-73
2022/06/18 10:48:29;;;;;;;6.95;2.90;;;;;;;38.83;18.10;101229.06;5027447;28;20128;-72
2022/06/18 10:50:57;;;;;;;5.72;2.35;;;;;;;38.86;18.65;101228.50;5028308;28;20049;-73
2022/06/18 10:53:28;;;;;;;5.97;2.47;;;;;;;38.92;18.13;101235.03;5027040;28;20084;-72
2022/06/18 10:56:05;;;;;;;4.97;2.10;;;;;;;38.98;18.30;101228.25;5028344;28;20053;-73
2022/06/18 10:58:32;;;;;;;6.63;2.35;;;;;;;38.98;17.81;101233.94;5027569;28;20158;-72
2022/06/18 11:01:10;;;;;;;4.18;2.17;;;;;;;39.04;18.34;101230.81;5027887;28;20099;-72
2022/06/18 11:03:37;;;;;;;6.70;2.40;;;;;;;39.06;17.76;101231.38;5027127;28;20486;-73
2022/06/18 11:06:13;;;;;;;5.90;2.50;;;;;;;39.14;17.18;101218.59;5028235;28;20099;-73
2022/06/18 11:08:50;;;;;;;5.65;2.72;;;;;;;39.17;17.11;101220.91;5026856;28;20144;-72
2022/06/18 11:11:22;;;;;;;5.35;2.38;;;;;;;39.20;17.37;101217.50;5040738;28;20048;-73
2022/06/18 11:13:50;;;;;;;6.00;2.30;;;;;;;39.19;17.28;101216.66;5047238;28;20552;-73
2022/06/18 11:16:25;;;;;;;6.22;2.40;;;;;;;39.28;16.76;101221.75;5047270;28;20041;-72
2022/06/18 11:18:56;;;;;;;8.13;2.40;;;;;;;39.30;16.85;101217.47;5047332;28;20048;-73
2022/06/18 11:21:23;;;;;;;5.85;2.08;;;;;;;39.26;17.19;101213.50;5048064;28;20089;-73
2022/06/18 11:24:23;;;;;;;6.13;2.30;;;;;;;39.27;17.29;101212.38;5031906;28;20088;-73
2022/06/18 11:26:50;;;;;;;6.57;2.30;;;;;;;39.32;17.38;101208.66;5051853;28;20055;-73
2022/06/18 11:29:46;;;;;;;6.60;2.45;;;;;;;39.35;16.93;101203.28;5050097;28;20132;-72
2022/06/18 11:32:19;;;;;;;5.85;2.55;;;;;;;39.43;16.92;101211.25;5026009;28;20095;-73
2022/06/18 11:34:57;;;;;;;5.65;2.63;;;;;;;39.46;16.81;101198.44;5031210;28;20409;-71
2022/06/18 11:37:27;;;;;;;6.75;2.25;;;;;;;39.47;17.27;101203.84;5030528;28;20045;-73
2022/06/18 11:40:03;;;;;;;5.60;2.72;;;;;;;39.48;17.23;101199.03;5032483;28;20494;-71
2022/06/18 11:42:38;;;;;;;5.93;2.08;;;;;;;39.51;16.93;101193.63;5029887;28;20069;-71
2022/06/18 11:45:26;;;;;;;5.72;2.40;;;;;;;39.54;17.01;101187.34;4995134;28;20507;-73
2022/06/18 11:48:17;;;;;;;6.68;2.58;;;;;;;39.55;16.95;101183.38;5010535;28;20049;-73
2022/06/18 11:51:30;;;;;;;7.22;2.35;;;;;;;39.51;17.28;101181.41;5011933;28;20085;-70
2022/06/18 11:54:15;;;;;;;4.55;2.38;;;;;;;39.58;16.81;101178.25;5010858;28;20046;-71
2022/06/18 11:56:55;;;;;;;6.00;2.40;;;;;;;39.60;17.35;101165.47;5012126;28;20088;-71
2022/06/18 11:59:33;;;;;;;4.78;2.58;;;;;;;39.65;16.61;101165.44;5010903;28;20146;-71
2022/06/18 12:02:12;;;;;;;6.40;2.50;;;;;;;39.68;16.64;101158.34;4993982;28;20060;-71